createdAt,value
2019-01-13T00:00:52.642Z,81.22
2019-01-13T00:01:52.629Z,81.32
2019-01-13T00:02:52.620Z,81.22
2019-01-13T00:03:52.611Z,81.32
2019-01-13T00:04:52.605Z,81.53
2019-01-13T00:05:52.585Z,81.53
2019-01-13T00:06:52.573Z,81.12
2019-01-13T00:07:52.561Z,80.70
2019-01-13T00:09:52.540Z,80.40
2019-01-13T00:10:52.528Z,79.88
2019-01-13T00:11:52.516Z,81.22
2019-01-13T00:12:52.504Z,81.01
2019-01-13T00:14:52.484Z,81.42
2019-01-13T00:15:52.478Z,81.22
2019-01-13T00:16:52.464Z,81.22
2019-01-13T00:17:52.450Z,81.32
2019-01-13T00:18:52.439Z,81.53
2019-01-13T00:19:52.430Z,80.70
2019-01-13T00:20:52.416Z,81.01
2019-01-13T00:22:52.395Z,80.81
2019-01-13T00:23:52.399Z,81.01
2019-01-13T00:24:52.371Z,80.91
2019-01-13T00:25:52.359Z,81.42
2019-01-13T00:26:52.348Z,81.53
2019-01-13T00:27:52.337Z,81.32
2019-01-13T00:28:52.325Z,81.22
2019-01-13T00:29:52.315Z,81.01
2019-01-13T00:30:52.303Z,81.42
2019-01-13T00:31:52.292Z,81.63
2019-01-13T00:32:52.282Z,82.08
2019-01-13T00:33:52.269Z,81.73
2019-01-13T00:34:52.264Z,81.87
2019-01-13T00:35:52.248Z,81.22
2019-01-13T00:36:52.236Z,81.32
2019-01-13T00:38:52.213Z,81.32
2019-01-13T00:39:52.204Z,81.53
2019-01-13T00:40:52.192Z,81.32
2019-01-13T00:41:52.181Z,81.32
2019-01-13T00:42:52.168Z,81.42
2019-01-13T00:43:52.167Z,81.22
2019-01-13T00:44:52.145Z,81.32
2019-01-13T00:45:52.151Z,81.53
2019-01-13T00:46:52.128Z,81.18
2019-01-13T00:47:52.132Z,81.01
2019-01-13T00:48:52.106Z,81.22
2019-01-13T00:49:52.120Z,81.22
2019-01-13T00:50:52.078Z,81.94
2019-01-13T00:52:52.056Z,81.42
2019-01-13T00:54:52.041Z,81.77
2019-01-13T00:55:52.022Z,82.08
2019-01-13T00:56:52.011Z,81.73
2019-01-13T00:57:52.049Z,81.67
2019-01-13T00:58:51.986Z,81.67
2019-01-13T00:59:51.977Z,81.53
2019-01-13T01:00:51.965Z,81.63
2019-01-13T01:01:52.008Z,81.22
2019-01-13T01:02:51.942Z,81.01
2019-01-13T01:03:51.990Z,81.22
2019-01-13T01:04:51.921Z,80.91
2019-01-13T01:06:51.897Z,81.22
2019-01-13T01:07:51.896Z,81.63
2019-01-13T01:08:51.880Z,82.08
2019-01-13T01:09:51.920Z,82.25
2019-01-13T01:12:51.835Z,82.70
2019-01-13T01:14:51.815Z,82.39
2019-01-13T01:15:51.798Z,82.49
2019-01-13T01:16:51.786Z,82.18
2019-01-13T01:17:51.805Z,82.29
2019-01-13T01:18:51.787Z,81.77
2019-01-13T01:19:51.815Z,81.98
2019-01-13T01:20:51.785Z,81.87
2019-01-13T01:21:51.832Z,81.26
2019-01-13T01:22:51.727Z,81.46
2019-01-13T01:23:51.728Z,81.36
2019-01-13T01:25:51.740Z,81.05
2019-01-13T01:26:51.673Z,81.15
2019-01-13T01:28:51.651Z,81.32
2019-01-13T01:29:51.638Z,81.22
2019-01-13T01:30:51.630Z,81.26
2019-01-13T01:31:51.616Z,81.57
2019-01-13T01:32:51.607Z,81.15
2019-01-13T01:34:51.585Z,80.84
2019-01-13T01:35:51.574Z,81.36
2019-01-13T01:36:51.567Z,80.64
2019-01-13T01:37:51.552Z,80.02
2019-01-13T01:38:51.538Z,79.68
2019-01-13T01:44:51.471Z,79.92
2019-01-13T01:45:51.459Z,79.92
2019-01-13T01:46:51.448Z,79.92
2019-01-13T01:47:51.444Z,79.92
2019-01-13T01:50:51.407Z,79.51
2019-01-13T01:51:51.393Z,79.92
2019-01-13T01:53:51.370Z,78.99
2019-01-13T01:55:51.352Z,78.99
2019-01-13T01:56:51.336Z,79.30
2019-01-13T01:58:51.312Z,78.99
2019-01-13T02:00:51.293Z,78.68
2019-01-13T02:01:51.280Z,78.17
2019-01-13T02:02:51.272Z,77.55
2019-01-13T02:04:51.250Z,77.34
2019-01-13T02:10:51.191Z,77.34
2019-01-13T02:11:51.174Z,77.24
2019-01-13T02:12:51.156Z,77.10
2019-01-13T02:13:51.144Z,76.83
2019-01-13T02:15:51.122Z,76.62
2019-01-13T02:16:51.116Z,76.72
2019-01-13T02:18:51.087Z,76.93
2019-01-13T02:19:51.077Z,77.00
2019-01-13T02:20:51.065Z,76.93
2019-01-13T02:21:51.055Z,77.45
2019-01-13T02:22:51.042Z,77.14
2019-01-13T02:24:51.025Z,77.34
2019-01-13T02:25:51.008Z,77.55
2019-01-13T02:27:50.992Z,77.55
2019-01-13T02:28:50.975Z,77.55
2019-01-13T02:29:50.963Z,77.55
2019-01-13T02:30:50.977Z,77.86
2019-01-13T02:31:50.948Z,78.47
2019-01-13T02:34:50.907Z,78.68
2019-01-13T02:36:50.888Z,78.68
2019-01-13T02:38:50.870Z,79.44
2019-01-13T02:39:50.850Z,79.23
2019-01-13T02:40:50.845Z,79.96
2019-01-13T02:41:50.830Z,79.61
2019-01-13T02:42:50.818Z,80.02
2019-01-13T02:43:50.812Z,79.51
2019-01-13T02:46:50.773Z,79.30
2019-01-13T02:47:50.766Z,79.61
2019-01-13T02:49:50.748Z,79.61
2019-01-13T02:50:50.728Z,79.92
2019-01-13T02:51:50.717Z,79.92
2019-01-13T02:52:50.710Z,79.10
2019-01-13T02:53:50.706Z,79.10
2019-01-13T02:54:50.681Z,79.82
2019-01-13T02:56:50.660Z,79.92
2019-01-13T02:57:50.651Z,80.33
2019-01-13T03:00:57.050Z,80.02
2019-01-13T03:01:51.622Z,80.95
2019-01-13T03:02:50.597Z,81.46
2019-01-13T03:03:50.580Z,81.77
2019-01-13T03:05:50.562Z,82.29
2019-01-13T03:06:50.555Z,81.98
2019-01-13T03:07:50.534Z,83.42
2019-01-13T03:08:50.524Z,83.42
2019-01-13T03:11:50.498Z,83.63
2019-01-13T03:12:50.479Z,83.94
2019-01-13T03:13:50.468Z,83.83
2019-01-13T03:14:50.464Z,84.35
2019-01-13T03:15:50.445Z,83.63
2019-01-13T03:17:50.425Z,84.45
2019-01-13T03:18:50.413Z,84.14
2019-01-13T03:19:50.401Z,84.80
2019-01-13T03:22:50.367Z,84.80
2019-01-13T03:24:50.351Z,85.11
2019-01-13T03:26:50.327Z,84.90
2019-01-13T03:28:50.302Z,84.39
2019-01-13T03:29:50.291Z,83.73
2019-01-13T03:31:50.275Z,84.24
2019-01-13T03:32:50.272Z,84.86
2019-01-13T03:36:50.212Z,84.80
2019-01-13T03:37:50.200Z,84.80
2019-01-13T03:40:50.170Z,85.48
2019-01-13T03:42:50.145Z,85.07
2019-01-13T03:43:50.131Z,85.38
2019-01-13T03:44:50.121Z,85.52
2019-01-13T03:49:50.064Z,85.41
2019-01-13T03:52:53.126Z,85.48
2019-01-13T03:54:50.009Z,85.31
2019-01-13T03:55:50.004Z,85.31
2019-01-13T03:56:49.988Z,84.90
2019-01-13T03:58:49.962Z,85.41
2019-01-13T03:59:49.951Z,85.38
2019-01-13T04:00:49.946Z,85.52
2019-01-13T04:02:49.923Z,86.45
2019-01-13T04:03:49.950Z,85.48
2019-01-13T04:04:49.897Z,85.62
2019-01-13T04:05:49.883Z,85.00
2019-01-13T04:06:49.872Z,85.31
2019-01-13T04:08:49.875Z,85.41
2019-01-13T04:09:49.840Z,85.31
2019-01-13T04:10:49.828Z,85.52
2019-01-13T04:12:49.810Z,85.52
2019-01-13T04:13:49.794Z,84.69
2019-01-13T04:14:49.787Z,84.90
2019-01-13T04:15:49.778Z,84.66
2019-01-13T04:16:49.759Z,84.80
2019-01-13T04:18:49.736Z,85.07
2019-01-13T04:20:49.719Z,84.66
2019-01-13T04:21:49.706Z,84.76
2019-01-13T04:22:49.690Z,84.80
2019-01-13T04:23:49.684Z,84.80
2019-01-13T04:24:49.673Z,84.76
2019-01-13T04:25:49.662Z,84.18
2019-01-13T04:26:49.648Z,84.14
2019-01-13T04:29:49.617Z,83.52
2019-01-13T04:31:49.592Z,83.63
2019-01-13T04:32:49.578Z,83.73
2019-01-13T04:33:49.570Z,83.52
2019-01-13T04:34:49.562Z,83.73
2019-01-13T04:35:49.593Z,83.73
2019-01-13T04:36:49.538Z,83.52
2019-01-13T04:37:49.533Z,83.63
2019-01-13T04:39:49.498Z,84.04
2019-01-13T04:40:49.554Z,84.24
2019-01-13T04:41:49.480Z,84.24
2019-01-13T04:42:49.464Z,84.35
2019-01-13T04:44:49.441Z,84.66
2019-01-13T04:45:49.432Z,84.96
2019-01-13T04:46:49.421Z,84.90
2019-01-13T04:47:49.408Z,84.66
2019-01-13T04:49:49.388Z,85.58
2019-01-13T04:50:49.374Z,85.48
2019-01-13T04:51:49.362Z,85.17
2019-01-13T04:52:49.367Z,84.96
2019-01-13T04:53:49.343Z,85.99
2019-01-13T04:54:49.330Z,85.17
2019-01-13T04:56:49.315Z,85.48
2019-01-13T04:57:49.297Z,85.79
2019-01-13T04:58:49.299Z,85.48
2019-01-13T04:59:49.280Z,85.38
2019-01-13T05:01:49.253Z,86.04
2019-01-13T05:02:49.241Z,85.58
2019-01-13T05:03:49.231Z,85.72
2019-01-13T05:04:49.219Z,86.20
2019-01-13T05:05:49.205Z,85.58
2019-01-13T05:07:49.187Z,85.38
2019-01-13T05:08:49.177Z,85.07
2019-01-13T05:09:49.159Z,85.07
2019-01-13T05:10:49.148Z,85.27
2019-01-13T05:11:49.139Z,85.13
2019-01-13T05:12:49.128Z,85.27
2019-01-13T05:14:49.103Z,85.58
2019-01-13T05:15:49.093Z,85.38
2019-01-13T05:16:49.108Z,84.86
2019-01-13T05:17:49.069Z,85.11
2019-01-13T05:18:49.060Z,84.96
2019-01-13T05:20:49.041Z,85.38
2019-01-13T05:21:49.023Z,84.45
2019-01-13T05:22:49.015Z,84.96
2019-01-13T05:23:49.007Z,84.55
2019-01-13T05:24:48.992Z,85.48
2019-01-13T05:26:48.971Z,84.96
2019-01-13T05:27:48.965Z,85.48
2019-01-13T05:28:48.948Z,85.79
2019-01-13T05:30:48.930Z,85.89
2019-01-13T05:31:48.913Z,85.17
2019-01-13T05:32:48.904Z,85.07
2019-01-13T05:33:48.889Z,85.27
2019-01-13T05:34:48.879Z,85.58
2019-01-13T05:35:48.866Z,85.07
2019-01-13T05:36:48.863Z,84.66
2019-01-13T05:37:48.844Z,85.27
2019-01-13T05:38:48.836Z,85.27
2019-01-13T05:39:48.822Z,84.76
2019-01-13T05:40:48.814Z,84.86
2019-01-13T05:41:48.797Z,84.66
2019-01-13T05:43:48.777Z,84.66
2019-01-13T05:44:48.766Z,84.66
2019-01-13T05:45:48.756Z,84.96
2019-01-13T05:46:48.744Z,84.96
2019-01-13T05:47:48.732Z,85.79
2019-01-13T05:48:48.731Z,85.48
2019-01-13T05:49:48.710Z,85.38
2019-01-13T05:50:48.700Z,85.79
2019-01-13T05:53:48.662Z,85.58
2019-01-13T05:54:48.650Z,85.89
2019-01-13T05:55:48.641Z,85.62
2019-01-13T05:58:48.606Z,85.99
2019-01-13T05:59:48.595Z,85.79
2019-01-13T06:00:48.586Z,86.20
2019-01-13T06:01:49.329Z,85.48
2019-01-13T06:02:48.561Z,86.30
2019-01-13T06:04:48.540Z,85.89
2019-01-13T06:05:48.529Z,85.62
2019-01-13T06:07:48.505Z,86.45
2019-01-13T06:08:48.544Z,85.52
2019-01-13T06:09:48.487Z,85.62
2019-01-13T06:10:48.471Z,86.24
2019-01-13T06:11:48.464Z,86.04
2019-01-13T06:12:48.453Z,85.52
2019-01-13T06:14:48.430Z,86.04
2019-01-13T06:16:48.404Z,85.52
2019-01-13T06:19:48.370Z,85.52
2019-01-13T06:20:48.358Z,85.38
2019-01-13T06:21:48.348Z,84.86
2019-01-13T06:23:48.325Z,84.80
2019-01-13T06:24:48.316Z,84.49
2019-01-13T06:25:48.304Z,85.21
2019-01-13T06:26:48.298Z,84.96
2019-01-13T06:27:48.282Z,84.76
2019-01-13T06:29:48.257Z,84.59
2019-01-13T06:30:48.248Z,85.00
2019-01-13T06:31:48.236Z,84.80
2019-01-13T06:32:48.282Z,84.90
2019-01-13T06:33:48.217Z,85.07
2019-01-13T06:34:48.210Z,85.27
2019-01-13T06:35:48.192Z,84.86
2019-01-13T06:36:48.180Z,84.96
2019-01-13T06:37:48.175Z,84.96
2019-01-13T06:38:48.157Z,84.96
2019-01-13T06:39:48.148Z,84.96
2019-01-13T06:40:48.140Z,84.24
2019-01-13T06:41:48.122Z,84.66
2019-01-13T06:42:48.117Z,84.66
2019-01-13T06:43:48.103Z,84.45
2019-01-13T06:44:48.093Z,84.35
2019-01-13T06:45:48.078Z,84.14
2019-01-13T06:46:48.066Z,84.14
2019-01-13T06:47:48.058Z,83.63
2019-01-13T06:48:48.051Z,83.63
2019-01-13T06:49:48.041Z,83.94
2019-01-13T06:50:48.023Z,84.04
2019-01-13T06:51:48.009Z,83.89
2019-01-13T06:52:47.999Z,84.04
2019-01-13T06:53:48.003Z,84.04
2019-01-13T06:54:47.975Z,84.45
2019-01-13T06:55:47.964Z,84.04
2019-01-13T06:56:47.954Z,83.42
2019-01-13T06:57:47.956Z,83.63
2019-01-13T06:58:47.930Z,83.94
2019-01-13T06:59:47.926Z,83.52
2019-01-13T07:00:47.921Z,83.73
2019-01-13T07:01:47.926Z,83.63
2019-01-13T07:02:47.927Z,83.52
2019-01-13T07:03:47.882Z,83.59
2019-01-13T07:04:47.872Z,83.69
2019-01-13T07:05:47.881Z,83.63
2019-01-13T07:06:47.876Z,83.63
2019-01-13T07:07:47.882Z,83.59
2019-01-13T07:08:47.818Z,83.73
2019-01-13T07:09:47.815Z,83.11
2019-01-13T07:10:47.795Z,83.48
2019-01-13T07:11:47.786Z,83.42
2019-01-13T07:12:47.779Z,83.52
2019-01-13T07:13:47.760Z,82.80
2019-01-13T07:14:47.749Z,82.59
2019-01-13T07:15:47.741Z,82.70
2019-01-13T07:16:47.730Z,82.76
2019-01-13T07:17:47.723Z,82.76
2019-01-13T07:18:47.705Z,82.66
2019-01-13T07:19:47.693Z,82.25
2019-01-13T07:20:47.690Z,82.15
2019-01-13T07:21:47.671Z,82.45
2019-01-13T07:22:47.661Z,82.35
2019-01-13T07:23:47.650Z,82.35
2019-01-13T07:24:47.641Z,82.15
2019-01-13T07:25:47.628Z,82.45
2019-01-13T07:26:47.618Z,82.25
2019-01-13T07:27:47.602Z,82.45
2019-01-13T07:28:47.595Z,82.15
2019-01-13T07:29:47.582Z,81.84
2019-01-13T07:30:47.574Z,82.25
2019-01-13T07:31:47.565Z,82.35
2019-01-13T07:32:47.547Z,82.25
2019-01-13T07:33:47.541Z,82.66
2019-01-13T07:34:47.527Z,82.45
2019-01-13T07:35:47.513Z,82.35
2019-01-13T07:36:47.502Z,82.18
2019-01-13T07:37:47.499Z,82.66
2019-01-13T07:38:47.480Z,82.97
2019-01-13T07:39:47.469Z,82.45
2019-01-13T07:40:47.460Z,82.25
2019-01-13T07:41:47.452Z,81.73
2019-01-13T07:42:47.444Z,82.04
2019-01-13T07:43:47.424Z,82.97
2019-01-13T07:44:47.415Z,83.07
2019-01-13T07:45:47.404Z,83.07
2019-01-13T07:46:47.391Z,83.63
2019-01-13T07:47:47.382Z,83.22
2019-01-13T07:48:47.370Z,83.73
2019-01-13T07:49:47.363Z,83.63
2019-01-13T07:50:47.352Z,83.22
2019-01-13T07:51:47.340Z,83.11
2019-01-13T07:52:47.325Z,83.52
2019-01-13T07:53:47.317Z,83.31
2019-01-13T07:54:47.303Z,83.63
2019-01-13T07:55:47.297Z,83.17
2019-01-13T07:56:47.282Z,83.59
2019-01-13T07:57:47.272Z,82.56
2019-01-13T07:58:47.268Z,82.35
2019-01-13T07:59:47.248Z,82.56
2019-01-13T08:00:47.236Z,82.66
2019-01-13T08:01:47.232Z,82.56
2019-01-13T08:02:47.213Z,82.35
2019-01-13T08:03:47.202Z,82.35
2019-01-13T08:04:47.195Z,82.35
2019-01-13T08:05:47.181Z,82.04
2019-01-13T08:06:47.172Z,82.00
2019-01-13T08:07:47.159Z,81.49
2019-01-13T08:08:47.149Z,81.39
2019-01-13T08:09:47.143Z,81.49
2019-01-13T08:10:47.128Z,81.28
2019-01-13T08:11:47.118Z,81.18
2019-01-13T08:12:47.107Z,81.28
2019-01-13T08:13:47.099Z,81.39
2019-01-13T08:14:47.083Z,81.28
2019-01-13T08:15:47.077Z,81.28
2019-01-13T08:16:47.061Z,81.08
2019-01-13T08:17:47.049Z,81.28
2019-01-13T08:18:47.039Z,80.77
2019-01-13T08:19:47.030Z,81.18
2019-01-13T08:20:47.017Z,81.08
2019-01-13T08:21:47.006Z,81.39
2019-01-13T08:22:46.995Z,81.18
2019-01-13T08:23:46.989Z,81.18
2019-01-13T08:24:46.973Z,81.08
2019-01-13T08:25:46.960Z,81.18
2019-01-13T08:26:46.953Z,80.98
2019-01-13T08:27:46.939Z,81.08
2019-01-13T08:28:46.932Z,81.45
2019-01-13T08:29:46.922Z,80.87
2019-01-13T08:30:46.965Z,81.18
2019-01-13T08:31:46.894Z,81.18
2019-01-13T08:32:46.884Z,81.08
2019-01-13T08:33:46.871Z,81.39
2019-01-13T08:34:46.866Z,81.18
2019-01-13T08:35:46.854Z,81.25
2019-01-13T08:36:46.838Z,81.45
2019-01-13T08:37:46.832Z,81.08
2019-01-13T08:38:46.815Z,80.84
2019-01-13T08:39:46.805Z,80.84
2019-01-13T08:40:46.792Z,81.45
2019-01-13T08:41:46.785Z,81.25
2019-01-13T08:42:46.777Z,80.94
2019-01-13T08:43:46.759Z,81.04
2019-01-13T08:44:46.749Z,81.25
2019-01-13T08:45:50.346Z,81.45
2019-01-13T08:46:46.739Z,81.25
2019-01-13T08:47:46.719Z,81.45
2019-01-13T08:48:46.705Z,81.56
2019-01-13T08:49:46.694Z,81.14
2019-01-13T08:50:46.685Z,81.14
2019-01-13T08:51:46.674Z,80.94
2019-01-13T08:52:46.674Z,80.94
2019-01-13T08:53:46.654Z,81.35
2019-01-13T08:54:46.641Z,80.94
2019-01-13T08:55:46.632Z,81.25
2019-01-13T08:56:46.621Z,81.35
2019-01-13T08:57:46.608Z,80.94
2019-01-13T08:58:46.597Z,81.25
2019-01-13T08:59:46.588Z,81.14
2019-01-13T09:00:46.577Z,81.04
2019-01-13T09:01:46.573Z,81.00
2019-01-13T09:02:46.555Z,81.45
2019-01-13T09:03:46.543Z,81.04
2019-01-13T09:04:46.533Z,81.04
2019-01-13T09:05:46.522Z,81.42
2019-01-13T09:06:46.516Z,81.21
2019-01-13T09:07:46.504Z,81.31
2019-01-13T09:08:46.489Z,81.42
2019-01-13T09:09:46.479Z,80.90
2019-01-13T09:10:46.470Z,81.10
2019-01-13T09:11:46.457Z,81.21
2019-01-13T09:12:46.451Z,80.80
2019-01-13T09:13:46.443Z,80.59
2019-01-13T09:14:46.423Z,81.10
2019-01-13T09:15:46.415Z,81.21
2019-01-13T09:16:46.403Z,81.04
2019-01-13T09:17:46.395Z,81.42
2019-01-13T09:18:46.383Z,81.52
2019-01-13T09:19:46.374Z,81.93
2019-01-13T09:20:46.361Z,82.03
2019-01-13T09:21:46.351Z,82.03
2019-01-13T09:22:46.338Z,82.14
2019-01-13T09:23:46.328Z,82.34
2019-01-13T09:24:46.316Z,82.34
2019-01-13T09:25:46.307Z,82.44
2019-01-13T09:26:50.901Z,82.14
2019-01-13T09:27:46.288Z,82.17
2019-01-13T09:28:46.273Z,82.14
2019-01-13T09:29:46.268Z,82.34
2019-01-13T09:30:46.250Z,82.89
2019-01-13T09:31:46.244Z,82.86
2019-01-13T09:32:46.230Z,83.20
2019-01-13T09:33:46.227Z,82.86
2019-01-13T09:34:46.209Z,83.00
2019-01-13T09:35:46.197Z,83.51
2019-01-13T09:36:46.188Z,83.27
2019-01-13T09:37:46.175Z,82.79
2019-01-13T09:38:46.167Z,82.86
2019-01-13T09:39:46.157Z,82.95
2019-01-13T09:40:46.143Z,83.67
2019-01-13T09:41:46.135Z,83.27
2019-01-13T09:42:46.126Z,83.67
2019-01-13T09:43:46.118Z,83.37
2019-01-13T09:44:46.100Z,83.10
2019-01-13T09:45:46.089Z,83.61
2019-01-13T09:46:46.085Z,83.61
2019-01-13T09:47:46.068Z,83.47
2019-01-13T09:48:46.054Z,82.75
2019-01-13T09:49:49.874Z,82.24
2019-01-13T09:50:46.033Z,82.55
2019-01-13T09:51:46.024Z,82.86
2019-01-13T09:52:46.014Z,83.37
2019-01-13T09:53:46.001Z,82.75
2019-01-13T09:54:45.997Z,82.65
2019-01-13T09:55:45.987Z,82.24
2019-01-13T09:56:45.976Z,82.95
2019-01-13T09:57:45.959Z,82.55
2019-01-13T09:58:45.953Z,83.06
2019-01-13T09:59:45.948Z,83.27
2019-01-13T10:00:45.925Z,83.06
2019-01-13T10:01:45.917Z,82.75
2019-01-13T10:02:46.731Z,82.03
2019-01-13T10:03:45.901Z,82.40
2019-01-13T10:04:45.882Z,82.14
2019-01-13T10:05:45.871Z,82.09
2019-01-13T10:06:45.861Z,82.20
2019-01-13T10:07:45.850Z,82.30
2019-01-13T10:08:45.839Z,82.30
2019-01-13T10:09:45.828Z,82.51
2019-01-13T10:10:45.821Z,82.51
2019-01-13T10:11:45.805Z,81.58
2019-01-13T10:12:45.795Z,82.40
2019-01-13T10:13:45.784Z,82.40
2019-01-13T10:14:45.824Z,83.02
2019-01-13T10:15:45.809Z,82.61
2019-01-13T10:16:45.753Z,82.61
2019-01-13T10:17:45.744Z,82.71
2019-01-13T10:18:45.732Z,82.20
2019-01-13T10:19:45.720Z,81.79
2019-01-13T10:20:45.711Z,82.20
2019-01-13T10:21:45.701Z,82.71
2019-01-13T10:22:45.688Z,82.40
2019-01-13T10:23:45.683Z,82.30
2019-01-13T10:24:45.667Z,82.09
2019-01-13T10:25:45.654Z,82.71
2019-01-13T10:26:45.642Z,82.20
2019-01-13T10:27:45.634Z,82.20
2019-01-13T10:28:45.620Z,82.20
2019-01-13T10:29:45.609Z,82.00
2019-01-13T10:30:45.599Z,82.16
2019-01-13T10:31:45.590Z,81.89
2019-01-13T10:32:46.772Z,81.89
2019-01-13T10:33:45.567Z,81.48
2019-01-13T10:34:45.556Z,81.68
2019-01-13T10:35:45.548Z,81.03
2019-01-13T10:36:45.534Z,81.28
2019-01-13T10:37:45.525Z,80.82
2019-01-13T10:38:45.512Z,81.17
2019-01-13T10:39:45.504Z,81.07
2019-01-13T10:40:45.492Z,81.17
2019-01-13T10:41:45.482Z,81.38
2019-01-13T10:42:45.471Z,81.07
2019-01-13T10:43:45.458Z,81.68
2019-01-13T10:44:45.448Z,82.20
2019-01-13T10:45:45.444Z,82.09
2019-01-13T10:46:45.430Z,82.30
2019-01-13T10:47:45.420Z,82.30
2019-01-13T10:48:45.408Z,82.30
2019-01-13T10:49:45.397Z,82.20
2019-01-13T10:50:45.382Z,82.30
2019-01-13T10:51:45.373Z,81.28
2019-01-13T10:52:45.363Z,82.40
2019-01-13T10:53:45.350Z,82.30
2019-01-13T10:54:45.339Z,81.48
2019-01-13T10:55:45.333Z,81.38
2019-01-13T10:56:45.323Z,82.20
2019-01-13T10:57:45.320Z,81.68
2019-01-13T10:58:45.297Z,81.48
2019-01-13T10:59:45.285Z,81.68
2019-01-13T11:00:45.275Z,81.54
2019-01-13T11:01:45.272Z,82.06
2019-01-13T11:02:45.256Z,82.06
2019-01-13T11:03:45.245Z,81.86
2019-01-13T11:04:45.231Z,81.14
2019-01-13T11:05:45.222Z,80.82
2019-01-13T11:06:45.213Z,81.03
2019-01-13T11:07:45.205Z,81.24
2019-01-13T11:08:45.188Z,81.24
2019-01-13T11:09:45.178Z,81.14
2019-01-13T11:10:45.171Z,80.82
2019-01-13T11:11:45.159Z,80.62
2019-01-13T11:12:45.144Z,81.03
2019-01-13T11:13:45.134Z,81.34
2019-01-13T11:14:45.121Z,81.24
2019-01-13T11:15:45.112Z,81.03
2019-01-13T11:16:45.099Z,80.62
2019-01-13T11:17:45.089Z,80.79
2019-01-13T11:18:45.075Z,81.14
2019-01-13T11:19:45.068Z,81.10
2019-01-13T11:20:45.063Z,80.68
2019-01-13T11:21:45.043Z,80.79
2019-01-13T11:22:45.031Z,80.99
2019-01-13T11:23:45.022Z,80.99
2019-01-13T11:24:45.016Z,80.72
2019-01-13T11:25:45.000Z,80.79
2019-01-13T11:26:44.989Z,81.20
2019-01-13T11:27:44.984Z,80.79
2019-01-13T11:28:44.971Z,81.20
2019-01-13T11:29:44.963Z,81.10
2019-01-13T11:30:44.946Z,80.99
2019-01-13T11:31:44.939Z,81.14
2019-01-13T11:32:44.925Z,80.68
2019-01-13T11:33:44.914Z,81.03
2019-01-13T11:34:44.904Z,80.82
2019-01-13T11:35:44.891Z,80.93
2019-01-13T11:36:44.880Z,81.44
2019-01-13T11:37:44.873Z,81.34
2019-01-13T11:38:44.862Z,81.10
2019-01-13T11:39:44.850Z,80.82
2019-01-13T11:40:44.846Z,82.06
2019-01-13T11:41:44.830Z,82.06
2019-01-13T11:42:44.824Z,82.06
2019-01-13T11:43:44.807Z,82.16
2019-01-13T11:44:44.798Z,82.26
2019-01-13T11:45:44.788Z,82.47
2019-01-13T11:46:44.773Z,81.95
2019-01-13T11:47:44.759Z,82.26
2019-01-13T11:48:44.756Z,82.16
2019-01-13T11:49:44.744Z,82.06
2019-01-13T11:50:44.735Z,83.33
2019-01-13T11:51:44.722Z,83.53
2019-01-13T11:52:44.704Z,83.53
2019-01-13T11:53:44.694Z,83.33
2019-01-13T11:54:44.688Z,83.60
2019-01-13T11:55:44.676Z,83.39
2019-01-13T11:56:44.661Z,83.39
2019-01-13T11:57:44.652Z,82.67
2019-01-13T11:58:44.644Z,82.74
2019-01-13T11:59:44.628Z,82.47
2019-01-13T12:00:44.616Z,82.84
2019-01-13T12:01:44.604Z,82.53
2019-01-13T12:02:44.595Z,82.02
2019-01-13T12:03:44.585Z,82.57
2019-01-13T12:04:44.572Z,82.47
2019-01-13T12:05:44.563Z,82.06
2019-01-13T12:06:44.551Z,82.20
2019-01-13T12:07:44.542Z,83.27
2019-01-13T12:08:44.531Z,84.29
2019-01-13T12:09:44.521Z,84.29
2019-01-13T12:10:44.509Z,83.88
2019-01-13T12:11:44.508Z,83.43
2019-01-13T12:12:44.492Z,83.53
2019-01-13T12:13:44.475Z,83.74
2019-01-13T12:14:44.466Z,83.64
2019-01-13T12:15:44.458Z,83.85
2019-01-13T12:16:44.444Z,84.66
2019-01-13T12:17:44.432Z,84.56
2019-01-13T12:18:44.424Z,83.94
2019-01-13T12:19:44.409Z,83.88
2019-01-13T12:20:44.402Z,84.71
2019-01-13T12:21:44.388Z,85.11
2019-01-13T12:22:44.375Z,84.56
2019-01-13T12:23:44.369Z,85.28
2019-01-13T12:24:44.355Z,84.46
2019-01-13T12:25:44.348Z,84.52
2019-01-13T12:26:44.331Z,84.42
2019-01-13T12:27:44.320Z,83.50
2019-01-13T12:28:44.307Z,83.64
2019-01-13T12:29:44.299Z,83.85
2019-01-13T12:30:44.288Z,84.36
2019-01-13T12:31:44.276Z,84.05
2019-01-13T12:32:44.266Z,84.15
2019-01-13T12:33:44.254Z,84.56
2019-01-13T12:34:44.244Z,84.66
2019-01-13T12:35:44.237Z,84.52
2019-01-13T12:36:44.229Z,84.46
2019-01-13T12:37:44.212Z,84.93
2019-01-13T12:38:44.201Z,84.87
2019-01-13T12:39:44.191Z,84.97
2019-01-13T12:40:44.180Z,84.56
2019-01-13T12:41:44.171Z,85.04
2019-01-13T12:42:44.159Z,84.97
2019-01-13T12:43:44.155Z,84.63
2019-01-13T12:44:44.137Z,84.46
2019-01-13T12:45:44.126Z,84.56
2019-01-13T12:46:44.115Z,84.05
2019-01-13T12:47:44.107Z,84.56
2019-01-13T12:48:44.094Z,85.18
2019-01-13T12:49:44.089Z,84.56
2019-01-13T12:50:44.090Z,84.97
2019-01-13T12:51:44.107Z,84.97
2019-01-13T12:52:44.095Z,85.18
2019-01-13T12:53:44.038Z,85.55
2019-01-13T12:54:44.039Z,85.08
2019-01-13T12:55:44.049Z,84.97
2019-01-13T12:56:44.048Z,85.38
2019-01-13T12:57:44.874Z,85.49
2019-01-13T12:58:43.987Z,85.80
2019-01-13T12:59:43.976Z,85.28
2019-01-13T13:00:43.965Z,85.38
2019-01-13T13:01:43.948Z,85.28
2019-01-13T13:02:43.941Z,85.80
2019-01-13T13:03:43.925Z,85.80
2019-01-13T13:04:43.914Z,85.45
2019-01-13T13:05:43.906Z,84.97
2019-01-13T13:06:43.893Z,84.73
2019-01-13T13:07:43.883Z,85.04
2019-01-13T13:08:43.869Z,85.04
2019-01-13T13:09:43.865Z,85.04
2019-01-13T13:10:43.848Z,84.87
2019-01-13T13:11:43.836Z,85.14
2019-01-13T13:12:43.832Z,85.65
2019-01-13T13:13:43.815Z,85.45
2019-01-13T13:14:43.804Z,85.14
2019-01-13T13:15:43.791Z,85.24
2019-01-13T13:16:43.778Z,85.14
2019-01-13T13:17:43.771Z,85.14
2019-01-13T13:18:43.757Z,84.93
2019-01-13T13:19:43.803Z,85.04
2019-01-13T13:20:43.738Z,85.76
2019-01-13T13:21:43.723Z,85.35
2019-01-13T13:22:43.717Z,85.65
2019-01-13T13:23:43.713Z,85.49
2019-01-13T13:24:43.691Z,85.35
2019-01-13T13:25:43.686Z,84.83
2019-01-13T13:26:43.671Z,85.24
2019-01-13T13:27:43.660Z,85.76
2019-01-13T13:28:43.650Z,85.35
2019-01-13T13:29:43.638Z,85.55
2019-01-13T13:30:43.639Z,85.55
2019-01-13T13:31:43.616Z,84.93
2019-01-13T13:32:43.611Z,85.35
2019-01-13T13:33:43.594Z,85.04
2019-01-13T13:34:43.586Z,85.24
2019-01-13T13:35:43.577Z,84.93
2019-01-13T13:36:43.573Z,85.24
2019-01-13T13:37:43.553Z,85.04
2019-01-13T13:38:43.541Z,85.49
2019-01-13T13:39:43.531Z,85.35
2019-01-13T13:40:43.523Z,85.76
2019-01-13T13:41:43.508Z,85.55
2019-01-13T13:42:43.496Z,85.35
2019-01-13T13:43:43.486Z,86.58
2019-01-13T13:44:43.475Z,86.16
2019-01-13T13:45:43.465Z,86.06
2019-01-13T13:46:43.453Z,86.27
2019-01-13T13:47:43.442Z,85.71
2019-01-13T13:48:43.438Z,85.92
2019-01-13T13:49:43.421Z,86.02
2019-01-13T13:50:43.412Z,85.62
2019-01-13T13:51:43.400Z,85.82
2019-01-13T13:52:43.392Z,85.51
2019-01-13T13:53:43.383Z,85.62
2019-01-13T13:54:43.369Z,85.30
2019-01-13T13:55:43.360Z,85.16
2019-01-13T13:56:43.344Z,85.16
2019-01-13T13:57:43.334Z,85.20
2019-01-13T13:58:43.319Z,85.82
2019-01-13T13:59:43.309Z,85.30
2019-01-13T14:00:43.296Z,85.20
2019-01-13T14:01:43.284Z,85.71
2019-01-13T14:02:43.278Z,85.82
2019-01-13T14:03:45.808Z,85.92
2019-01-13T14:04:43.250Z,85.71
2019-01-13T14:05:43.240Z,86.64
2019-01-13T14:06:43.228Z,85.82
2019-01-13T14:07:43.218Z,86.13
2019-01-13T14:08:43.212Z,86.23
2019-01-13T14:09:43.195Z,86.23
2019-01-13T14:10:43.194Z,86.02
2019-01-13T14:11:43.173Z,86.54
2019-01-13T14:12:43.162Z,86.23
2019-01-13T14:13:43.158Z,85.92
2019-01-13T14:14:43.140Z,86.33
2019-01-13T14:15:43.133Z,86.02
2019-01-13T14:16:43.126Z,86.64
2019-01-13T14:17:43.112Z,86.64
2019-01-13T14:18:43.097Z,86.64
2019-01-13T14:19:43.088Z,86.74
2019-01-13T14:20:43.074Z,86.84
2019-01-13T14:21:43.066Z,86.70
2019-01-13T14:22:43.083Z,86.40
2019-01-13T14:23:43.087Z,86.81
2019-01-13T14:24:43.036Z,85.98
2019-01-13T14:25:43.025Z,86.09
2019-01-13T14:26:43.012Z,86.29
2019-01-13T14:27:43.005Z,86.19
2019-01-13T14:28:42.990Z,86.40
2019-01-13T14:29:42.978Z,85.37
2019-01-13T14:30:42.972Z,85.78
2019-01-13T14:31:42.958Z,86.19